Time;durP1;ratioP1;P1;durP2;ratioP2;P2;SDS_P1;SDS_P2;PMS_P1;PMS_P2;Temp;Humidity;BMP_temperature;BMP_pressure;BME280_temperature;BME280_humidity;BME280_pressure;Samples;Min_cycle;Max_cycle;Signal;HPM_P1;HPM_P2
2022/10/28 00:02:09;;;;;;;5.38;3.08;;;;;;;18.20;65.55;101772.72;6294803;22;20007;-90
2022/10/28 00:04:34;;;;;;;5.63;3.00;;;;;;;18.20;65.68;101769.25;6319762;22;20047;-89
2022/10/28 00:07:00;;;;;;;5.05;2.72;;;;;;;18.19;65.49;101764.94;6374385;22;20414;-90
2022/10/28 00:09:25;;;;;;;4.65;2.83;;;;;;;18.22;65.47;101764.94;6346038;22;20357;-90
2022/10/28 00:11:50;;;;;;;4.75;2.90;;;;;;;18.20;65.61;101756.25;6307458;22;20006;-83
2022/10/28 00:14:16;;;;;;;4.95;3.08;;;;;;;18.20;65.80;101753.63;6323289;22;20006;-90
2022/10/28 00:16:41;;;;;;;4.38;2.85;;;;;;;18.21;65.48;101756.25;6352373;22;20011;-90
2022/10/28 00:19:10;;;;;;;3.97;2.80;;;;;;;18.20;65.45;101753.63;6345667;22;20060;-88
2022/10/28 00:21:38;;;;;;;4.72;2.70;;;;;;;18.19;65.59;101754.53;6371256;22;20022;-90
2022/10/28 00:24:05;;;;;;;4.40;2.70;;;;;;;18.20;65.54;101756.25;6344830;22;20014;-90
2022/10/28 00:26:32;;;;;;;4.35;2.75;;;;;;;18.20;65.37;101753.63;6318835;22;20014;-88
2022/10/28 00:29:01;;;;;;;5.10;2.75;;;;;;;18.19;65.82;101747.56;6371121;22;20005;-88
2022/10/28 00:31:28;;;;;;;5.60;2.53;;;;;;;18.19;65.69;101749.31;6344614;22;20002;-88
2022/10/28 00:33:54;;;;;;;3.13;2.38;;;;;;;18.18;65.39;101744.94;6344231;22;20030;-90
2022/10/28 00:36:27;;;;;;;5.25;2.67;;;;;;;18.18;65.40;101748.44;6345300;22;19998;-89
2022/10/28 00:38:54;;;;;;;3.85;2.25;;;;;;;18.18;65.81;101757.97;6370893;22;19998;-89
2022/10/28 00:41:26;;;;;;;3.88;2.60;;;;;;;18.19;65.57;101757.13;6344728;22;20434;-89
2022/10/28 00:43:58;;;;;;;4.43;2.65;;;;;;;18.18;65.33;101763.19;6344770;22;20078;-89
2022/10/28 00:46:42;;;;;;;3.65;2.53;;;;;;;18.18;65.35;101766.69;6344457;22;20338;-89
2022/10/28 00:49:11;;;;;;;5.32;2.20;;;;;;;18.17;65.52;101759.72;6344604;22;20037;-89
2022/10/28 00:51:36;;;;;;;3.92;2.30;;;;;;;18.17;65.73;101758.84;6352009;22;20018;-89
2022/10/28 00:54:04;;;;;;;3.78;2.47;;;;;;;18.17;65.61;101759.72;6309864;22;20090;-86
2022/10/28 00:56:33;;;;;;;3.42;2.20;;;;;;;18.17;65.52;101753.63;6333711;22;20041;-89
2022/10/28 00:59:01;;;;;;;4.82;2.55;;;;;;;18.15;65.51;101753.63;6380840;22;20090;-89
2022/10/28 01:01:26;;;;;;;3.35;2.40;;;;;;;18.17;65.43;101757.09;6330649;22;20010;-90
2022/10/28 01:03:54;;;;;;;4.03;2.45;;;;;;;18.16;65.49;101754.50;6333826;22;20010;-88
2022/10/28 01:06:20;;;;;;;3.55;2.30;;;;;;;18.17;65.49;101751.03;6332298;22;20330;-90
2022/10/28 01:08:46;;;;;;;4.00;2.10;;;;;;;18.16;65.64;101750.16;6359682;22;20014;-90
2022/10/28 01:18:05;;;;;;;3.45;2.40;;;;;;;18.15;65.68;101726.72;6374533;22;20060;-89
2022/10/28 01:20:40;;;;;;;2.97;2.10;;;;;;;18.16;65.44;101733.66;6345580;22;20018;-89
2022/10/28 01:29:56;;;;;;;2.65;2.00;;;;;;;18.15;65.39;101722.38;6374127;22;20491;-91
2022/10/28 01:32:31;;;;;;;3.05;2.20;;;;;;;18.16;65.66;101733.66;6344711;22;20010;-90
2022/10/28 01:42:06;;;;;;;5.57;2.30;;;;;;;18.15;65.59;101722.38;6374176;22;20017;-90
2022/10/28 01:45:10;;;;;;;3.70;2.08;;;;;;;18.16;65.57;101725.84;6344725;22;20006;-90
2022/10/28 01:54:25;;;;;;;2.83;2.20;;;;;;;18.16;65.51;101705.00;6278292;22;20023;-89
2022/10/28 01:56:52;;;;;;;3.22;2.20;;;;;;;18.16;66.00;101712.81;6277766;22;20027;-89
2022/10/28 02:38:01;;;;;;;3.50;2.17;;;;;;;18.15;65.50;101685.03;6275172;23;20056;-85
2022/10/28 03:16:33;;;;;;;3.67;1.90;;;;;;;18.12;65.47;101658.97;6298704;22;20026;-85
2022/10/28 04:04:30;;;;;;;2.90;1.83;;;;;;;18.11;65.40;101639.88;6361474;22;20023;-83
2022/10/28 04:07:34;;;;;;;3.38;1.80;;;;;;;18.11;65.42;101637.25;6363421;22;20002;-85
2022/10/28 04:14:21;;;;;;;3.40;1.75;;;;;;;18.09;65.49;101624.25;6366851;22;20010;-85
2022/10/28 05:14:39;;;;;;;2.55;1.70;;;;;;;18.06;65.27;101607.75;6291780;22;20017;-80
2022/10/28 06:36:44;;;;;;;9.88;4.32;;;;;;;18.09;65.08;101613.84;6378957;22;20026;-86
2022/10/28 06:39:19;;;;;;;9.13;3.92;;;;;;;18.10;65.05;101604.28;6315046;22;20022;-81
2022/10/28 06:52:38;;;;;;;8.65;3.95;;;;;;;18.15;65.23;101607.75;6362928;22;20006;-84
2022/10/28 06:55:49;;;;;;;6.85;3.53;;;;;;;18.16;65.11;101608.59;6360990;22;20034;-84
2022/10/28 07:05:06;;;;;;;7.35;3.28;;;;;;;18.21;64.91;101612.97;6335389;22;20002;-83
2022/10/28 09:46:06;;;;;;;4.32;2.47;;;;;;;18.51;63.97;101637.28;6264538;22;20038;31
2022/10/28 09:55:34;;;;;;;5.82;2.53;;;;;;;18.53;64.20;101630.34;6333669;22;20012;-84
2022/10/28 10:14:18;;;;;;;6.22;2.70;;;;;;;18.57;64.20;101605.13;6367864;22;20018;-83
2022/10/28 10:20:48;;;;;;;3.83;2.55;;;;;;;18.60;64.14;101595.56;6400459;22;20013;-83
2022/10/28 10:58:22;;;;;;;3.92;2.55;;;;;;;18.65;63.98;101625.09;6396591;22;20039;-83
2022/10/28 11:08:11;;;;;;;3.22;2.17;;;;;;;18.64;63.94;101628.59;6243738;23;20011;-82
2022/10/28 11:10:39;;;;;;;5.45;2.40;;;;;;;18.65;63.99;101637.25;6158624;23;20021;-83
2022/10/28 12:49:56;;;;;;;6.22;2.78;;;;;;;18.72;63.71;101680.69;6359621;22;20006;-83
2022/10/28 13:34:33;;;;;;;7.45;3.35;;;;;;;18.71;63.70;101716.34;6315505;22;20119;-82
2022/10/28 17:23:48;;;;;;;6.30;2.90;;;;;;;18.47;64.65;101959.59;6267441;22;20070;-84
2022/10/28 17:36:57;;;;;;;9.60;3.60;;;;;;;18.47;64.88;101980.47;6331870;22;20011;-80
2022/10/28 17:39:43;;;;;;;7.03;3.30;;;;;;;18.47;64.90;101984.81;6365722;22;19987;-81
2022/10/28 17:44:44;;;;;;;6.55;3.00;;;;;;;18.45;65.21;101979.56;6299032;22;20027;-80
2022/10/28 17:47:12;;;;;;;7.15;3.40;;;;;;;18.45;65.32;101989.13;6303409;22;20026;-82
2022/10/28 17:49:38;;;;;;;6.13;2.90;;;;;;;18.45;65.51;101999.56;6275332;22;20022;-80
2022/10/28 17:52:03;;;;;;;6.60;3.20;;;;;;;18.45;65.30;101995.22;6277383;22;20004;-81
2022/10/28 17:54:29;;;;;;;5.70;2.90;;;;;;;18.46;65.51;102001.28;6277760;22;20034;-81
2022/10/28 17:56:55;;;;;;;7.95;2.88;;;;;;;18.46;65.51;102011.72;6290847;22;20014;-81
2022/10/28 17:59:20;;;;;;;7.53;2.92;;;;;;;18.46;65.63;102006.50;6291732;22;20432;-80
2022/10/28 18:01:46;;;;;;;7.45;3.20;;;;;;;18.45;65.86;102004.78;6271642;22;20011;-79
2022/10/28 18:04:11;;;;;;;5.68;2.63;;;;;;;18.45;65.86;102017.81;6265799;22;20384;-80
2022/10/28 18:06:37;;;;;;;5.18;2.83;;;;;;;18.46;65.94;102022.13;6261850;22;20011;-80
2022/10/28 18:09:02;;;;;;;7.10;2.80;;;;;;;18.46;66.22;102035.19;6260789;22;20008;-79
2022/10/28 18:11:30;;;;;;;6.28;2.80;;;;;;;18.45;66.15;102029.09;6260255;22;20007;-80
2022/10/28 18:13:55;;;;;;;6.75;2.75;;;;;;;18.45;66.26;102028.22;6261327;22;20432;-80
2022/10/28 18:16:24;;;;;;;6.45;3.15;;;;;;;18.44;66.12;102021.25;6259891;22;20012;-79
2022/10/28 18:18:50;;;;;;;6.32;2.75;;;;;;;18.44;65.71;102021.25;6287241;22;19992;-79
2022/10/28 18:21:16;;;;;;;5.90;2.53;;;;;;;18.44;66.17;102022.16;6286653;22;20026;-79
2022/10/28 18:23:42;;;;;;;5.35;2.85;;;;;;;18.44;66.08;102021.25;6259102;22;20331;-79
2022/10/28 18:26:14;;;;;;;6.03;2.78;;;;;;;18.44;66.02;102026.47;6286818;22;19999;-79
2022/10/28 18:28:41;;;;;;;6.80;3.08;;;;;;;18.45;66.20;102043.88;6286844;22;20039;-79
2022/10/28 18:31:11;;;;;;;5.97;2.60;;;;;;;18.44;66.10;102044.72;6285462;22;20030;-79
2022/10/28 18:33:37;;;;;;;8.63;2.90;;;;;;;18.43;66.06;102025.59;6259331;22;20004;-78
2022/10/28 18:36:09;;;;;;;5.93;2.80;;;;;;;18.43;66.01;102033.44;6312116;22;20003;-80
2022/10/28 18:38:35;;;;;;;6.47;2.83;;;;;;;18.43;65.86;102043.00;6260570;22;20000;-80
2022/10/28 18:41:00;;;;;;;5.45;2.50;;;;;;;18.42;66.17;102042.13;6260930;22;20012;-80
2022/10/28 18:43:25;;;;;;;10.02;3.25;;;;;;;18.43;66.04;102056.03;6276148;22;20045;-81
2022/10/28 18:45:51;;;;;;;6.28;2.85;;;;;;;18.42;66.19;102057.75;6266155;22;20003;-81
2022/10/28 18:48:16;;;;;;;8.18;2.78;;;;;;;18.43;66.05;102063.84;6238829;22;20007;-80
2022/10/28 18:50:42;;;;;;;5.75;2.80;;;;;;;18.43;66.03;102069.06;6315717;22;20052;-80
2022/10/28 18:53:08;;;;;;;5.85;2.83;;;;;;;18.42;66.07;102059.47;6236747;22;20033;-80
2022/10/28 18:55:33;;;;;;;5.63;2.65;;;;;;;18.41;66.03;102058.59;6261521;22;20007;-79
2022/10/28 18:57:59;;;;;;;6.30;2.42;;;;;;;18.42;66.37;102054.25;6286261;22;20011;-80
2022/10/28 19:00:24;;;;;;;5.40;2.60;;;;;;;18.42;66.34;102055.16;6286204;22;20367;-80
2022/10/28 19:02:50;;;;;;;4.38;2.40;;;;;;;18.41;66.23;102049.94;6260742;22;20011;-80
2022/10/28 19:05:15;;;;;;;5.28;2.53;;;;;;;18.41;66.24;102048.19;6261005;22;20336;-80
2022/10/28 19:07:41;;;;;;;5.63;2.63;;;;;;;18.41;66.09;102045.56;6235528;22;20086;-80
2022/10/28 19:10:06;;;;;;;7.57;2.75;;;;;;;18.42;66.36;102059.47;6285464;22;20011;-80
2022/10/28 19:12:32;;;;;;;4.68;2.45;;;;;;;18.42;66.27;102056.88;6260441;22;20010;-80
2022/10/28 19:14:57;;;;;;;8.45;2.88;;;;;;;18.40;66.22;102056.88;6235837;22;20017;-80
2022/10/28 19:17:22;;;;;;;5.80;2.55;;;;;;;18.40;66.27;102056.88;6260408;22;20029;-80
2022/10/28 19:19:48;;;;;;;5.00;2.38;;;;;;;18.41;66.29;102061.22;6235521;22;20004;-80
2022/10/28 19:22:14;;;;;;;5.22;2.53;;;;;;;18.41;66.31;102060.34;6260796;22;20018;-80
2022/10/28 19:24:40;;;;;;;4.45;2.80;;;;;;;18.41;66.30;102053.41;6311906;22;20014;-80
2022/10/28 19:27:05;;;;;;;6.05;2.80;;;;;;;18.41;66.15;102060.34;6284700;22;20011;-79
2022/10/28 19:29:31;;;;;;;4.60;2.25;;;;;;;18.41;66.09;102070.78;6283909;22;20431;-80
2022/10/28 19:31:56;;;;;;;7.28;2.70;;;;;;;18.40;66.11;102069.91;6284057;22;20030;-80
2022/10/28 19:34:22;;;;;;;4.50;2.35;;;;;;;18.40;66.30;102071.63;6259161;22;20007;-80
2022/10/28 19:36:47;;;;;;;6.20;2.35;;;;;;;18.40;66.07;102072.50;6284168;22;20039;-80
2022/10/28 19:39:13;;;;;;;6.65;2.55;;;;;;;18.39;66.05;102081.19;6233666;22;20005;-80
2022/10/28 19:41:38;;;;;;;5.65;2.53;;;;;;;18.40;66.05;102084.66;6233354;22;20026;-80
2022/10/28 19:44:04;;;;;;;5.40;2.60;;;;;;;18.40;66.26;102076.84;6258264;22;20015;-80
2022/10/28 19:46:32;;;;;;;6.10;2.80;;;;;;;18.39;66.20;102078.56;6258173;22;20015;-80
2022/10/28 19:48:59;;;;;;;6.72;2.42;;;;;;;18.39;66.13;102086.38;6283721;22;20007;-80
2022/10/28 19:51:31;;;;;;;5.78;2.20;;;;;;;18.39;66.12;102094.22;6285084;22;20331;-80
2022/10/28 19:54:01;;;;;;;5.28;2.35;;;;;;;18.39;66.22;102096.81;6293553;22;20007;-81
2022/10/28 19:56:28;;;;;;;5.88;2.40;;;;;;;18.38;66.15;102102.91;6298432;22;20023;-81
2022/10/28 19:58:56;;;;;;;6.07;2.50;;;;;;;18.40;66.30;102113.31;6298257;22;20007;-80
2022/10/28 20:01:22;;;;;;;5.40;2.30;;;;;;;18.40;66.21;102113.31;6300202;22;20011;-81
2022/10/28 20:03:49;;;;;;;7.57;2.42;;;;;;;18.39;65.96;102122.00;6296947;22;20014;-80
2022/10/28 20:06:16;;;;;;;4.10;2.25;;;;;;;18.39;66.29;102122.00;6262367;22;20027;-80
2022/10/28 20:08:43;;;;;;;4.97;2.25;;;;;;;18.39;66.33;102115.06;6286652;22;20056;-80
2022/10/28 20:11:11;;;;;;;5.45;2.30;;;;;;;18.39;66.16;102122.00;6286969;22;19999;-80
2022/10/28 20:13:37;;;;;;;5.32;2.33;;;;;;;18.40;66.17;102136.78;6287218;22;20098;-80
2022/10/28 20:16:09;;;;;;;6.30;2.58;;;;;;;18.38;66.33;102131.56;6286045;22;20010;-80
2022/10/28 20:18:40;;;;;;;6.00;2.22;;;;;;;18.38;66.30;102135.88;5111306;27;1255540;-79
2022/10/28 20:21:09;;;;;;;5.35;2.28;;;;;;;18.39;66.17;102132.44;5096609;28;20043;-79
2022/10/28 20:23:36;;;;;;;5.60;2.53;;;;;;;18.37;66.36;102123.72;5114880;28;20057;-79
2022/10/28 20:26:03;;;;;;;4.15;2.13;;;;;;;18.37;66.21;102116.78;5096940;28;20165;-79
2022/10/28 20:28:28;;;;;;;6.43;2.25;;;;;;;18.37;66.12;102124.59;5099622;28;20027;-79
2022/10/28 20:30:55;;;;;;;4.70;2.25;;;;;;;18.38;66.15;102135.88;5116259;28;20034;-79
2022/10/28 20:33:20;;;;;;;3.35;2.00;;;;;;;18.37;66.07;102139.38;5096877;28;20032;-79
2022/10/28 20:35:46;;;;;;;5.25;2.17;;;;;;;18.37;66.46;102131.56;5096293;28;20123;-79
2022/10/28 20:38:11;;;;;;;6.05;2.50;;;;;;;18.37;66.35;102131.56;5095817;28;20035;-79
2022/10/28 20:40:36;;;;;;;5.35;2.33;;;;;;;18.36;66.14;102137.63;5095832;28;20028;-79
2022/10/28 20:43:02;;;;;;;4.75;2.03;;;;;;;18.37;66.17;102141.97;5095377;28;20081;-79
2022/10/28 20:45:27;;;;;;;4.70;2.10;;;;;;;18.37;66.09;102149.78;5096088;28;20051;-79
2022/10/28 20:47:53;;;;;;;3.70;1.98;;;;;;;18.37;66.12;102149.78;5078308;28;20111;-79
2022/10/28 20:50:18;;;;;;;5.05;2.25;;;;;;;18.36;66.33;102151.53;5094517;28;20043;-79
2022/10/28 20:52:43;;;;;;;6.18;2.15;;;;;;;18.36;66.10;102154.16;5078415;28;20032;-79
2022/10/28 20:55:09;;;;;;;4.20;2.03;;;;;;;18.37;66.42;102160.22;5077991;28;20030;-79
2022/10/28 20:57:34;;;;;;;3.67;2.20;;;;;;;18.35;66.33;102148.91;5111615;28;20030;-79
2022/10/28 20:59:59;;;;;;;4.72;2.38;;;;;;;18.34;66.23;102158.47;5078034;28;20442;-78
2022/10/28 21:02:25;;;;;;;5.90;1.98;;;;;;;18.36;66.14;102163.69;5094978;28;20031;-80
2022/10/28 21:04:50;;;;;;;3.47;2.10;;;;;;;18.35;66.27;102165.41;5098482;28;20039;-79
2022/10/28 21:07:15;;;;;;;5.88;2.20;;;;;;;18.35;66.14;102161.94;5079751;28;20106;-80
2022/10/28 21:09:41;;;;;;;5.68;2.53;;;;;;;18.35;66.13;102169.75;5112494;28;20375;-80
2022/10/28 21:12:06;;;;;;;7.15;3.20;;;;;;;18.35;66.11;102174.97;5078119;28;20350;-79
2022/10/28 21:14:31;;;;;;;5.82;3.10;;;;;;;18.34;66.39;102158.47;5078207;28;20110;-79
2022/10/28 21:16:57;;;;;;;6.47;3.17;;;;;;;18.35;66.02;102167.16;5074967;28;21104;-79
2022/10/28 21:19:22;;;;;;;6.47;2.95;;;;;;;18.34;66.07;102168.03;5075108;28;20048;-80
2022/10/28 21:21:48;;;;;;;7.75;3.25;;;;;;;18.33;66.17;102168.88;5090689;28;20389;-79
2022/10/28 21:24:13;;;;;;;6.85;3.20;;;;;;;18.33;66.07;102161.91;5073947;28;20035;-79
2022/10/28 21:26:38;;;;;;;6.35;3.30;;;;;;;18.33;66.36;102164.53;5074139;28;20020;-79
2022/10/28 21:29:04;;;;;;;7.30;3.45;;;;;;;18.32;66.02;102161.94;5066227;28;20024;-79
2022/10/28 21:31:29;;;;;;;6.97;3.00;;;;;;;18.32;66.13;102175.81;5077189;28;20389;-79
2022/10/28 21:33:54;;;;;;;6.47;3.20;;;;;;;18.32;66.28;102160.19;5060931;28;20031;-79
2022/10/28 21:36:21;;;;;;;5.80;3.22;;;;;;;18.31;66.13;102163.63;5077211;28;20082;-79
2022/10/28 21:38:46;;;;;;;7.63;3.55;;;;;;;18.32;66.22;102165.41;5061331;28;20082;-80
2022/10/28 21:41:13;;;;;;;9.15;4.35;;;;;;;18.32;66.32;102162.78;5078002;28;20032;-79
2022/10/28 21:43:41;;;;;;;10.05;5.25;;;;;;;18.33;66.06;102163.66;5077150;28;20119;-80
2022/10/28 21:46:07;;;;;;;10.75;4.85;;;;;;;18.32;66.21;102173.22;5076707;28;20028;-78
2022/10/28 21:48:33;;;;;;;9.48;4.30;;;;;;;18.32;66.29;102172.34;5076335;28;20029;-79
2022/10/28 21:51:01;;;;;;;7.80;4.43;;;;;;;18.31;66.31;102179.28;5093165;28;20028;-78
2022/10/28 21:53:29;;;;;;;9.77;4.68;;;;;;;18.33;65.99;102174.09;5076323;28;20496;-81
2022/10/28 21:56:10;;;;;;;7.72;4.43;;;;;;;18.32;66.12;102173.22;5076060;28;20476;-80
2022/10/28 21:58:37;;;;;;;7.85;4.22;;;;;;;18.32;66.06;102170.59;5076177;28;20048;-80
2022/10/28 22:01:03;;;;;;;8.40;4.28;;;;;;;18.32;66.14;102167.13;5059415;28;20032;-78
2022/10/28 22:03:28;;;;;;;12.63;4.78;;;;;;;18.30;65.90;102173.19;5076738;28;20036;-80
2022/10/28 22:05:53;;;;;;;8.70;4.38;;;;;;;18.30;66.10;102173.19;5093209;28;20056;-79
2022/10/28 22:08:19;;;;;;;11.77;5.13;;;;;;;18.31;66.15;102174.06;5059340;28;20380;-78
2022/10/28 22:10:44;;;;;;;12.93;4.72;;;;;;;18.30;66.08;102182.75;5058913;28;20056;-80
2022/10/28 22:13:09;;;;;;;9.65;4.82;;;;;;;18.30;65.67;102180.16;5059223;28;20024;-77
2022/10/28 22:15:35;;;;;;;9.27;4.35;;;;;;;18.32;66.05;102185.38;5092487;28;20089;-80
2022/10/28 22:18:00;;;;;;;10.38;4.95;;;;;;;18.31;65.86;102184.47;5058847;28;20083;-79
2022/10/28 22:20:25;;;;;;;8.43;4.45;;;;;;;18.30;65.80;102186.22;5059065;28;20497;-78
2022/10/28 22:22:51;;;;;;;13.95;4.95;;;;;;;18.29;66.16;102184.50;5058892;28;20020;-78
2022/10/28 22:25:16;;;;;;;8.15;4.55;;;;;;;18.30;66.08;102190.56;5059010;28;20028;-80
2022/10/28 22:27:43;;;;;;;10.82;4.55;;;;;;;18.29;66.02;102187.09;5059233;28;20127;-78
2022/10/28 22:30:10;;;;;;;11.93;4.35;;;;;;;18.30;66.09;102193.19;5092484;28;20028;-79
2022/10/28 22:32:35;;;;;;;10.30;4.70;;;;;;;18.29;65.89;102194.00;5058504;28;20494;-79
2022/10/28 22:35:01;;;;;;;8.13;4.25;;;;;;;18.29;65.86;102183.59;5058459;28;20025;-80
2022/10/28 22:37:26;;;;;;;7.82;4.13;;;;;;;18.29;66.07;102186.19;5074657;28;20429;-80
2022/10/28 22:39:52;;;;;;;8.73;4.50;;;;;;;18.27;65.97;102191.41;5057967;28;20195;-80
2022/10/28 22:42:17;;;;;;;8.70;3.97;;;;;;;18.27;66.06;102190.56;5074497;28;20024;-79
2022/10/28 22:44:42;;;;;;;9.25;4.18;;;;;;;18.28;65.84;102203.56;5058111;28;20029;-79
2022/10/28 22:47:08;;;;;;;7.63;4.50;;;;;;;18.29;66.02;102204.44;5058576;28;20048;-80
2022/10/28 22:49:33;;;;;;;7.80;3.63;;;;;;;18.29;66.08;102196.63;5058072;28;20021;-78
2022/10/28 22:51:58;;;;;;;7.40;4.00;;;;;;;18.27;65.94;102196.63;5074976;28;20095;-80
2022/10/28 22:54:23;;;;;;;6.80;3.70;;;;;;;18.29;65.86;102188.81;5057804;28;20032;-80
2022/10/28 22:56:49;;;;;;;7.85;3.63;;;;;;;18.28;65.95;102190.53;5081505;28;20033;-78
2022/10/28 22:59:14;;;;;;;8.30;3.65;;;;;;;18.26;65.81;102192.25;5063416;28;20032;-79
2022/10/28 23:01:40;;;;;;;8.75;4.00;;;;;;;18.29;65.81;102196.63;5066207;28;20055;-79
2022/10/28 23:04:09;;;;;;;7.82;4.07;;;;;;;18.27;65.90;102191.41;5063970;28;20489;-79
2022/10/28 23:06:34;;;;;;;10.40;3.75;;;;;;;18.26;65.87;102189.66;5079356;28;20077;-79
2022/10/28 23:09:00;;;;;;;5.97;3.35;;;;;;;18.28;65.81;102200.09;5076231;28;20119;-79
2022/10/28 23:11:26;;;;;;;6.88;3.55;;;;;;;18.26;65.84;102189.66;5075682;28;20035;-80
2022/10/28 23:13:53;;;;;;;6.95;3.65;;;;;;;18.26;65.96;102205.28;5075594;28;20028;-79
2022/10/28 23:16:19;;;;;;;7.80;3.30;;;;;;;18.26;65.86;102205.28;5075400;28;20024;-79
2022/10/28 23:18:44;;;;;;;7.38;3.60;;;;;;;18.27;65.87;102203.59;5093703;28;20097;-80
2022/10/28 23:21:13;;;;;;;6.47;3.63;;;;;;;18.26;65.73;102200.06;5077020;28;20036;-81
2022/10/28 23:23:39;;;;;;;6.80;3.67;;;;;;;18.26;65.66;102197.47;5076286;28;20021;-81
2022/10/28 23:26:05;;;;;;;6.93;3.40;;;;;;;18.25;65.88;102190.53;5076775;28;20033;-80
2022/10/28 23:28:31;;;;;;;6.30;3.55;;;;;;;18.25;65.67;102185.31;5060838;28;20470;-80
2022/10/28 23:31:00;;;;;;;6.68;3.30;;;;;;;18.25;65.84;102198.34;5059711;28;20028;-79
2022/10/28 23:33:27;;;;;;;5.72;3.00;;;;;;;18.25;65.83;102197.47;5077558;28;20485;-79
2022/10/28 23:35:54;;;;;;;6.57;3.10;;;;;;;18.25;65.88;102198.34;5077137;28;20081;-79
2022/10/28 23:38:20;;;;;;;6.38;3.45;;;;;;;18.25;65.73;102208.78;5077365;28;20025;-79
2022/10/28 23:40:55;;;;;;;8.27;3.60;;;;;;;18.26;65.76;102204.44;5076662;28;20029;-79
2022/10/28 23:43:21;;;;;;;7.22;3.10;;;;;;;18.25;65.82;102203.56;5078213;28;20033;-79
2022/10/28 23:45:46;;;;;;;5.97;3.13;;;;;;;18.25;65.92;102205.31;5076919;28;20035;-80
2022/10/28 23:48:12;;;;;;;6.53;3.00;;;;;;;18.25;65.99;102200.09;5060209;28;20501;-80
2022/10/28 23:50:37;;;;;;;5.18;3.17;;;;;;;18.24;65.63;102198.31;5076991;28;20101;-79
2022/10/28 23:53:02;;;;;;;5.30;2.80;;;;;;;18.24;65.81;102200.94;5059033;28;20028;-79
2022/10/28 23:55:28;;;;;;;5.40;3.20;;;;;;;18.23;65.70;102194.84;5093873;28;20039;-80
2022/10/28 23:57:55;;;;;;;6.07;3.10;;;;;;;18.24;65.68;102200.94;5060881;28;20110;-80
